sensor_id;sensor_type;location;lat;lon;timestamp;pressure;altitude;pressure_sealevel;temperature;humidity
62508;BME280;48556;51.972;4.624;2023-02-03T00:01:54;102494.06;;;10.90;87.00
62508;BME280;48556;51.972;4.624;2023-02-03T00:04:19;102511.78;;;11.06;86.64
62508;BME280;48556;51.972;4.624;2023-02-03T00:06:46;102520.41;;;10.93;86.95
62508;BME280;48556;51.972;4.624;2023-02-03T00:09:12;102533.59;;;10.94;85.96
62508;BME280;48556;51.972;4.624;2023-02-03T00:11:37;102516.94;;;10.94;86.72
62508;BME280;48556;51.972;4.624;2023-02-03T00:14:03;102521.47;;;11.09;85.88
62508;BME280;48556;51.972;4.624;2023-02-03T00:16:30;102520.19;;;10.77;88.02
62508;BME280;48556;51.972;4.624;2023-02-03T00:18:58;102519.25;;;10.74;88.11
62508;BME280;48556;51.972;4.624;2023-02-03T00:21:24;102507.78;;;10.69;87.53
62508;BME280;48556;51.972;4.624;2023-02-03T00:23:50;102511.97;;;10.54;88.63
62508;BME280;48556;51.972;4.624;2023-02-03T00:26:17;102524.06;;;10.43;88.70
62508;BME280;48556;51.972;4.624;2023-02-03T00:28:43;102519.38;;;10.82;87.90
62508;BME280;48556;51.972;4.624;2023-02-03T00:31:20;102528.97;;;10.80;87.48
62508;BME280;48556;51.972;4.624;2023-02-03T00:33:47;102530.72;;;10.77;87.35
62508;BME280;48556;51.972;4.624;2023-02-03T00:36:17;102543.69;;;10.65;88.54
62508;BME280;48556;51.972;4.624;2023-02-03T00:38:42;102540.09;;;10.60;89.08
62508;BME280;48556;51.972;4.624;2023-02-03T00:41:08;102538.63;;;10.77;88.50
62508;BME280;48556;51.972;4.624;2023-02-03T00:43:33;102546.41;;;10.73;87.89
62508;BME280;48556;51.972;4.624;2023-02-03T00:45:59;102544.69;;;10.73;88.11
62508;BME280;48556;51.972;4.624;2023-02-03T00:48:25;102554.38;;;10.74;88.52
62508;BME280;48556;51.972;4.624;2023-02-03T00:50:50;102538.72;;;10.85;87.88
62508;BME280;48556;51.972;4.624;2023-02-03T00:53:16;102542.13;;;10.80;88.19
62508;BME280;48556;51.972;4.624;2023-02-03T00:55:42;102539.41;;;10.70;87.96
62508;BME280;48556;51.972;4.624;2023-02-03T00:58:08;102518.47;;;10.80;87.68
62508;BME280;48556;51.972;4.624;2023-02-03T01:00:33;102542.88;;;10.68;88.34
62508;BME280;48556;51.972;4.624;2023-02-03T01:02:59;102524.03;;;11.01;87.12
62508;BME280;48556;51.972;4.624;2023-02-03T01:05:24;102525.50;;;10.81;87.53
62508;BME280;48556;51.972;4.624;2023-02-03T01:07:50;102519.59;;;10.99;86.74
62508;BME280;48556;51.972;4.624;2023-02-03T01:10:16;102515.91;;;10.84;86.53
62508;BME280;48556;51.972;4.624;2023-02-03T01:12:41;102528.31;;;10.93;85.98
62508;BME280;48556;51.972;4.624;2023-02-03T01:15:11;102524.00;;;10.98;85.88
62508;BME280;48556;51.972;4.624;2023-02-03T01:17:36;102521.88;;;10.72;86.77
62508;BME280;48556;51.972;4.624;2023-02-03T01:20:03;102521.56;;;10.51;87.47
62508;BME280;48556;51.972;4.624;2023-02-03T01:22:30;102514.84;;;10.71;86.68
62508;BME280;48556;51.972;4.624;2023-02-03T01:24:55;102514.63;;;10.56;86.76
62508;BME280;48556;51.972;4.624;2023-02-03T01:27:21;102518.63;;;10.90;85.07
62508;BME280;48556;51.972;4.624;2023-02-03T01:29:47;102537.28;;;10.48;86.73
62508;BME280;48556;51.972;4.624;2023-02-03T01:32:12;102534.22;;;10.76;85.90
62508;BME280;48556;51.972;4.624;2023-02-03T01:34:38;102510.28;;;10.59;85.13
62508;BME280;48556;51.972;4.624;2023-02-03T01:37:03;102472.56;;;10.59;85.67
62508;BME280;48556;51.972;4.624;2023-02-03T01:39:29;102464.31;;;10.97;84.37
62508;BME280;48556;51.972;4.624;2023-02-03T01:41:55;102465.00;;;10.84;83.52
62508;BME280;48556;51.972;4.624;2023-02-03T01:44:50;102465.94;;;10.86;82.97
62508;BME280;48556;51.972;4.624;2023-02-03T01:47:34;102478.47;;;11.07;82.57
62508;BME280;48556;51.972;4.624;2023-02-03T01:50:13;102495.81;;;10.91;83.04
62508;BME280;48556;51.972;4.624;2023-02-03T01:52:48;102492.28;;;10.89;83.07
62508;BME280;48556;51.972;4.624;2023-02-03T01:55:19;102505.13;;;10.67;83.34
62508;BME280;48556;51.972;4.624;2023-02-03T01:58:04;102499.78;;;11.30;81.28
62508;BME280;48556;51.972;4.624;2023-02-03T02:00:32;102507.47;;;11.11;81.75
62508;BME280;48556;51.972;4.624;2023-02-03T02:02:59;102497.75;;;11.04;81.86
62508;BME280;48556;51.972;4.624;2023-02-03T02:05:32;102492.47;;;11.04;82.56
62508;BME280;48556;51.972;4.624;2023-02-03T02:08:01;102483.06;;;11.23;81.90
62508;BME280;48556;51.972;4.624;2023-02-03T02:10:32;102475.81;;;11.05;82.22
62508;BME280;48556;51.972;4.624;2023-02-03T02:13:00;102480.91;;;10.91;82.56
62508;BME280;48556;51.972;4.624;2023-02-03T02:27:05;102451.84;;;10.84;83.79
62508;BME280;48556;51.972;4.624;2023-02-03T02:32:34;102469.66;;;11.03;83.14
62508;BME280;48556;51.972;4.624;2023-02-03T02:35:14;102469.66;;;11.05;82.90
62508;BME280;48556;51.972;4.624;2023-02-03T02:40:36;102476.47;;;10.86;83.41
62508;BME280;48556;51.972;4.624;2023-02-03T02:45:48;102478.28;;;10.90;83.49
62508;BME280;48556;51.972;4.624;2023-02-03T02:51:04;102452.59;;;11.49;81.28
62508;BME280;48556;51.972;4.624;2023-02-03T02:53:38;102462.09;;;11.36;81.09
62508;BME280;48556;51.972;4.624;2023-02-03T02:56:07;102475.06;;;11.16;82.58
62508;BME280;48556;51.972;4.624;2023-02-03T02:58:38;102476.75;;;11.10;81.92
62508;BME280;48556;51.972;4.624;2023-02-03T03:01:07;102481.56;;;10.75;83.21
62508;BME280;48556;51.972;4.624;2023-02-03T03:03:33;102474.88;;;11.00;83.29
62508;BME280;48556;51.972;4.624;2023-02-03T03:06:07;102465.16;;;10.94;82.54
62508;BME280;48556;51.972;4.624;2023-02-03T03:08:48;102448.50;;;10.94;82.79
62508;BME280;48556;51.972;4.624;2023-02-03T03:11:17;102443.91;;;10.77;83.12
62508;BME280;48556;51.972;4.624;2023-02-03T03:13:54;102436.44;;;10.44;84.43
62508;BME280;48556;51.972;4.624;2023-02-03T03:16:26;102427.03;;;10.63;84.80
62508;BME280;48556;51.972;4.624;2023-02-03T03:18:59;102454.06;;;10.51;84.56
62508;BME280;48556;51.972;4.624;2023-02-03T03:21:37;102411.41;;;10.75;84.80
62508;BME280;48556;51.972;4.624;2023-02-03T03:24:09;102426.38;;;10.80;83.47
62508;BME280;48556;51.972;4.624;2023-02-03T03:26:46;102438.72;;;10.85;83.56
62508;BME280;48556;51.972;4.624;2023-02-03T03:29:28;102464.91;;;10.74;84.55
62508;BME280;48556;51.972;4.624;2023-02-03T03:31:56;102459.69;;;10.79;83.97
62508;BME280;48556;51.972;4.624;2023-02-03T03:34:22;102442.50;;;11.07;83.23
62508;BME280;48556;51.972;4.624;2023-02-03T03:39:52;102477.38;;;10.89;83.60
62508;BME280;48556;51.972;4.624;2023-02-03T03:42:35;102462.59;;;11.02;83.20
62508;BME280;48556;51.972;4.624;2023-02-03T03:45:09;102468.78;;;11.04;83.11
62508;BME280;48556;51.972;4.624;2023-02-03T03:50:26;102451.81;;;10.81;83.79
62508;BME280;48556;51.972;4.624;2023-02-03T03:52:54;102454.63;;;10.94;83.90
62508;BME280;48556;51.972;4.624;2023-02-03T03:55:24;102481.75;;;10.87;83.61
62508;BME280;48556;51.972;4.624;2023-02-03T03:58:00;102488.09;;;11.06;83.14
62508;BME280;48556;51.972;4.624;2023-02-03T04:00:30;102472.22;;;10.97;83.30
62508;BME280;48556;51.972;4.624;2023-02-03T04:03:12;102466.03;;;10.97;82.94
62508;BME280;48556;51.972;4.624;2023-02-03T04:05:42;102480.00;;;10.89;83.84
62508;BME280;48556;51.972;4.624;2023-02-03T04:08:08;102483.44;;;10.84;nan
62508;BME280;48556;51.972;4.624;2023-02-03T04:10:37;102466.63;;;10.72;84.39
62508;BME280;48556;51.972;4.624;2023-02-03T04:13:03;102463.09;;;10.70;84.64
62508;BME280;48556;51.972;4.624;2023-02-03T04:15:30;102501.75;;;10.76;84.52
62508;BME280;48556;51.972;4.624;2023-02-03T04:17:56;102482.72;;;10.96;83.92
62508;BME280;48556;51.972;4.624;2023-02-03T04:20:25;102475.84;;;10.42;85.69
62508;BME280;48556;51.972;4.624;2023-02-03T04:22:50;102478.94;;;10.75;84.87
62508;BME280;48556;51.972;4.624;2023-02-03T04:25:16;102481.00;;;10.99;83.75
62508;BME280;48556;51.972;4.624;2023-02-03T04:27:42;102478.16;;;10.82;84.46
62508;BME280;48556;51.972;4.624;2023-02-03T04:30:09;102465.78;;;10.73;84.32
62508;BME280;48556;51.972;4.624;2023-02-03T04:32:35;102461.50;;;10.82;84.66
62508;BME280;48556;51.972;4.624;2023-02-03T04:35:02;102459.13;;;11.03;83.38
62508;BME280;48556;51.972;4.624;2023-02-03T04:37:28;102465.38;;;11.15;82.67
62508;BME280;48556;51.972;4.624;2023-02-03T04:39:54;102467.75;;;10.90;83.20
62508;BME280;48556;51.972;4.624;2023-02-03T04:42:23;102474.47;;;10.69;84.17
62508;BME280;48556;51.972;4.624;2023-02-03T04:44:51;102453.13;;;10.48;85.73
62508;BME280;48556;51.972;4.624;2023-02-03T04:47:20;102476.16;;;10.64;84.89
62508;BME280;48556;51.972;4.624;2023-02-03T04:49:47;102461.22;;;10.62;84.56
62508;BME280;48556;51.972;4.624;2023-02-03T04:52:13;102479.84;;;10.78;84.19
62508;BME280;48556;51.972;4.624;2023-02-03T04:54:39;102473.88;;;10.90;83.56
62508;BME280;48556;51.972;4.624;2023-02-03T04:57:05;102481.75;;;10.89;83.70
62508;BME280;48556;51.972;4.624;2023-02-03T04:59:31;102487.84;;;10.85;83.48
62508;BME280;48556;51.972;4.624;2023-02-03T05:01:57;102481.88;;;10.98;83.30
62508;BME280;48556;51.972;4.624;2023-02-03T05:04:22;102485.41;;;11.00;83.02
62508;BME280;48556;51.972;4.624;2023-02-03T05:06:51;102470.50;;;11.01;83.08
62508;BME280;48556;51.972;4.624;2023-02-03T05:09:16;102474.66;;;10.82;84.00
62508;BME280;48556;51.972;4.624;2023-02-03T05:11:42;102478.28;;;10.90;84.05
62508;BME280;48556;51.972;4.624;2023-02-03T05:14:08;102466.00;;;10.92;83.96
62508;BME280;48556;51.972;4.624;2023-02-03T05:16:33;102451.88;;;10.87;84.70
62508;BME280;48556;51.972;4.624;2023-02-03T05:18:59;102470.28;;;10.85;84.70
62508;BME280;48556;51.972;4.624;2023-02-03T05:21:24;102468.91;;;10.48;86.53
62508;BME280;48556;51.972;4.624;2023-02-03T05:23:50;102472.63;;;10.62;85.54
62508;BME280;48556;51.972;4.624;2023-02-03T05:26:15;102483.28;;;10.73;85.96
62508;BME280;48556;51.972;4.624;2023-02-03T05:28:41;102482.94;;;10.47;86.94
62508;BME280;48556;51.972;4.624;2023-02-03T05:31:06;102479.53;;;10.54;86.52
62508;BME280;48556;51.972;4.624;2023-02-03T05:33:32;102481.31;;;10.55;86.68
62508;BME280;48556;51.972;4.624;2023-02-03T05:35:58;102478.88;;;10.70;86.11
62508;BME280;48556;51.972;4.624;2023-02-03T05:38:23;102486.59;;;10.56;86.28
62508;BME280;48556;51.972;4.624;2023-02-03T05:40:51;102468.28;;;10.67;85.51
62508;BME280;48556;51.972;4.624;2023-02-03T05:43:36;102470.22;;;10.77;85.83
62508;BME280;48556;51.972;4.624;2023-02-03T05:46:04;102464.22;;;10.91;84.87
62508;BME280;48556;51.972;4.624;2023-02-03T05:48:50;102469.81;;;10.50;85.80
62508;BME280;48556;51.972;4.624;2023-02-03T05:51:16;102473.63;;;10.70;85.74
62508;BME280;48556;51.972;4.624;2023-02-03T05:53:41;102477.75;;;10.53;85.61
62508;BME280;48556;51.972;4.624;2023-02-03T05:56:07;102460.59;;;10.81;85.27
62508;BME280;48556;51.972;4.624;2023-02-03T05:58:33;102474.50;;;10.71;85.37
62508;BME280;48556;51.972;4.624;2023-02-03T06:00:59;102471.81;;;10.66;86.10
62508;BME280;48556;51.972;4.624;2023-02-03T06:03:25;102467.34;;;10.60;85.89
62508;BME280;48556;51.972;4.624;2023-02-03T06:05:50;102491.88;;;10.58;86.43
62508;BME280;48556;51.972;4.624;2023-02-03T06:08:16;102475.69;;;10.94;84.91
62508;BME280;48556;51.972;4.624;2023-02-03T06:10:41;102484.56;;;11.01;84.55
62508;BME280;48556;51.972;4.624;2023-02-03T06:13:13;102495.91;;;10.99;83.94
62508;BME280;48556;51.972;4.624;2023-02-03T06:15:39;102475.63;;;10.90;84.52
62508;BME280;48556;51.972;4.624;2023-02-03T06:18:06;102481.66;;;10.83;84.91
62508;BME280;48556;51.972;4.624;2023-02-03T06:20:32;102466.59;;;10.71;85.30
62508;BME280;48556;51.972;4.624;2023-02-03T06:22:58;102474.69;;;10.86;84.96
62508;BME280;48556;51.972;4.624;2023-02-03T06:25:24;102467.00;;;11.03;84.79
62508;BME280;48556;51.972;4.624;2023-02-03T06:27:49;102455.41;;;10.86;85.09
62508;BME280;48556;51.972;4.624;2023-02-03T06:30:15;102461.88;;;11.13;83.53
62508;BME280;48556;51.972;4.624;2023-02-03T06:32:41;102471.44;;;11.07;83.48
62508;BME280;48556;51.972;4.624;2023-02-03T06:35:11;102488.06;;;11.03;83.77
62508;BME280;48556;51.972;4.624;2023-02-03T06:37:37;102476.47;;;10.87;84.65
62508;BME280;48556;51.972;4.624;2023-02-03T06:40:03;102483.66;;;11.02;84.35
62508;BME280;48556;51.972;4.624;2023-02-03T06:42:31;102495.72;;;10.85;84.69
62508;BME280;48556;51.972;4.624;2023-02-03T06:44:56;102495.88;;;10.94;84.77
62508;BME280;48556;51.972;4.624;2023-02-03T06:47:22;102489.63;;;10.86;85.35
62508;BME280;48556;51.972;4.624;2023-02-03T06:49:48;102504.66;;;10.96;84.95
62508;BME280;48556;51.972;4.624;2023-02-03T06:52:14;102511.41;;;10.78;85.99
62508;BME280;48556;51.972;4.624;2023-02-03T06:54:40;102500.69;;;11.31;84.23
62508;BME280;48556;51.972;4.624;2023-02-03T06:57:07;102514.13;;;10.82;85.92
62508;BME280;48556;51.972;4.624;2023-02-03T06:59:32;102512.38;;;10.84;85.74
62508;BME280;48556;51.972;4.624;2023-02-03T07:01:59;102507.06;;;10.79;86.64
62508;BME280;48556;51.972;4.624;2023-02-03T07:04:24;102525.50;;;10.81;86.79
62508;BME280;48556;51.972;4.624;2023-02-03T07:06:55;102534.66;;;10.48;88.01
62508;BME280;48556;51.972;4.624;2023-02-03T07:09:23;102531.94;;;10.41;88.49
62508;BME280;48556;51.972;4.624;2023-02-03T07:11:48;102523.28;;;10.49;88.48
62508;BME280;48556;51.972;4.624;2023-02-03T07:14:14;102525.75;;;11.01;86.64
62508;BME280;48556;51.972;4.624;2023-02-03T07:16:40;102525.53;;;10.84;87.05
62508;BME280;48556;51.972;4.624;2023-02-03T07:19:05;102523.31;;;11.16;86.03
62508;BME280;48556;51.972;4.624;2023-02-03T07:21:31;102539.72;;;10.95;86.65
62508;BME280;48556;51.972;4.624;2023-02-03T07:23:57;102544.69;;;10.72;87.91
62508;BME280;48556;51.972;4.624;2023-02-03T07:26:23;102560.47;;;10.73;87.72
62508;BME280;48556;51.972;4.624;2023-02-03T07:28:51;102546.13;;;11.14;86.73
62508;BME280;48556;51.972;4.624;2023-02-03T07:31:17;102548.78;;;11.16;85.88
62508;BME280;48556;51.972;4.624;2023-02-03T07:33:43;102548.81;;;11.19;85.28
62508;BME280;48556;51.972;4.624;2023-02-03T07:36:11;102546.31;;;11.29;84.83
62508;BME280;48556;51.972;4.624;2023-02-03T07:38:37;102544.72;;;11.42;84.26
62508;BME280;48556;51.972;4.624;2023-02-03T07:41:05;102553.44;;;11.38;84.35
62508;BME280;48556;51.972;4.624;2023-02-03T07:43:31;102550.72;;;11.29;84.54
62508;BME280;48556;51.972;4.624;2023-02-03T07:45:56;102541.13;;;11.36;84.28
62508;BME280;48556;51.972;4.624;2023-02-03T07:48:22;102568.03;;;11.11;85.06
62508;BME280;48556;51.972;4.624;2023-02-03T07:50:48;102551.41;;;11.14;85.32
62508;BME280;48556;51.972;4.624;2023-02-03T07:53:15;102545.34;;;11.23;85.03
62508;BME280;48556;51.972;4.624;2023-02-03T07:55:41;102554.09;;;11.22;84.79
62508;BME280;48556;51.972;4.624;2023-02-03T07:58:07;102559.66;;;11.43;83.86
62508;BME280;48556;51.972;4.624;2023-02-03T08:00:33;102557.88;;;11.42;83.93
62508;BME280;48556;51.972;4.624;2023-02-03T08:02:59;102568.34;;;11.36;84.63
62508;BME280;48556;51.972;4.624;2023-02-03T08:05:33;102557.78;;;11.33;84.12
62508;BME280;48556;51.972;4.624;2023-02-03T08:08:00;102554.38;;;11.43;83.40
62508;BME280;48556;51.972;4.624;2023-02-03T08:10:25;102553.34;;;11.29;84.88
62508;BME280;48556;51.972;4.624;2023-02-03T08:12:54;102565.75;;;11.41;84.39
62508;BME280;48556;51.972;4.624;2023-02-03T08:15:21;102565.91;;;11.53;83.65
62508;BME280;48556;51.972;4.624;2023-02-03T08:17:48;102558.91;;;11.55;82.85
62508;BME280;48556;51.972;4.624;2023-02-03T08:20:14;102565.97;;;11.59;83.35
62508;BME280;48556;51.972;4.624;2023-02-03T08:22:41;102561.41;;;11.43;83.21
62508;BME280;48556;51.972;4.624;2023-02-03T08:25:07;102583.72;;;11.73;82.27
62508;BME280;48556;51.972;4.624;2023-02-03T08:27:33;102594.13;;;11.65;82.52
62508;BME280;48556;51.972;4.624;2023-02-03T08:29:58;102589.81;;;11.70;81.93
62508;BME280;48556;51.972;4.624;2023-02-03T08:32:24;102580.03;;;11.57;83.17
62508;BME280;48556;51.972;4.624;2023-02-03T08:34:51;102582.66;;;11.57;83.53
62508;BME280;48556;51.972;4.624;2023-02-03T08:37:19;102586.25;;;11.65;82.76
62508;BME280;48556;51.972;4.624;2023-02-03T08:39:46;102580.94;;;11.60;82.92
62508;BME280;48556;51.972;4.624;2023-02-03T08:42:13;102586.38;;;11.77;82.12
62508;BME280;48556;51.972;4.624;2023-02-03T08:44:38;102581.78;;;11.58;82.99
62508;BME280;48556;51.972;4.624;2023-02-03T08:47:05;102593.09;;;11.51;83.41
62508;BME280;48556;51.972;4.624;2023-02-03T08:49:31;102586.06;;;11.50;83.48
62508;BME280;48556;51.972;4.624;2023-02-03T08:52:00;102589.38;;;11.33;84.19
62508;BME280;48556;51.972;4.624;2023-02-03T08:54:26;102582.56;;;11.51;83.54
62508;BME280;48556;51.972;4.624;2023-02-03T08:56:52;102605.66;;;11.73;82.71
62508;BME280;48556;51.972;4.624;2023-02-03T08:59:18;102603.63;;;11.51;82.58
62508;BME280;48556;51.972;4.624;2023-02-03T09:01:44;102600.94;;;11.43;84.04
62508;BME280;48556;51.972;4.624;2023-02-03T09:04:11;102592.09;;;11.41;84.87
62508;BME280;48556;51.972;4.624;2023-02-03T09:06:37;102602.59;;;11.38;84.81
62508;BME280;48556;51.972;4.624;2023-02-03T09:09:03;102601.84;;;11.46;84.30
62508;BME280;48556;51.972;4.624;2023-02-03T09:11:29;102616.00;;;11.56;83.60
62508;BME280;48556;51.972;4.624;2023-02-03T09:13:55;102619.25;;;11.35;84.50
62508;BME280;48556;51.972;4.624;2023-02-03T09:16:23;102614.91;;;11.37;84.28
62508;BME280;48556;51.972;4.624;2023-02-03T09:18:50;102641.50;;;11.59;83.49
62508;BME280;48556;51.972;4.624;2023-02-03T09:21:17;102639.66;;;11.50;83.02
62508;BME280;48556;51.972;4.624;2023-02-03T09:23:44;102640.44;;;11.44;84.16
62508;BME280;48556;51.972;4.624;2023-02-03T09:26:12;102639.53;;;11.44;83.87
62508;BME280;48556;51.972;4.624;2023-02-03T09:28:38;102646.53;;;11.39;84.54
62508;BME280;48556;51.972;4.624;2023-02-03T09:31:06;102634.34;;;11.47;84.15
62508;BME280;48556;51.972;4.624;2023-02-03T09:33:34;102646.59;;;11.46;84.39
62508;BME280;48556;51.972;4.624;2023-02-03T09:36:00;102646.16;;;11.82;82.99
62508;BME280;48556;51.972;4.624;2023-02-03T09:38:27;102650.50;;;11.75;83.42
62508;BME280;48556;51.972;4.624;2023-02-03T09:41:22;102665.72;;;11.96;81.86
62508;BME280;48556;51.972;4.624;2023-02-03T09:46:55;102643.50;;;11.78;82.70
62508;BME280;48556;51.972;4.624;2023-02-03T09:49:47;102653.41;;;11.95;82.44
62508;BME280;48556;51.972;4.624;2023-02-03T09:52:31;102648.34;;;12.17;81.53
62508;BME280;48556;51.972;4.624;2023-02-03T09:55:33;102663.72;;;11.78;82.39
62508;BME280;48556;51.972;4.624;2023-02-03T09:58:15;102651.66;;;11.97;81.76
62508;BME280;48556;51.972;4.624;2023-02-03T10:01:05;102667.69;;;12.16;80.60
62508;BME280;48556;51.972;4.624;2023-02-03T10:06:43;102680.75;;;12.05;81.33
62508;BME280;48556;51.972;4.624;2023-02-03T10:09:33;102674.47;;;11.95;81.77
62508;BME280;48556;51.972;4.624;2023-02-03T10:12:46;102679.09;;;12.14;81.29
62508;BME280;48556;51.972;4.624;2023-02-03T10:18:06;102666.09;;;12.33;80.48
62508;BME280;48556;51.972;4.624;2023-02-03T10:20:42;102677.47;;;12.29;80.05
62508;BME280;48556;51.972;4.624;2023-02-03T10:23:30;102678.25;;;12.16;80.63
62508;BME280;48556;51.972;4.624;2023-02-03T10:26:06;102675.13;;;11.80;81.88
62508;BME280;48556;51.972;4.624;2023-02-03T10:29:05;102686.69;;;11.91;82.08
62508;BME280;48556;51.972;4.624;2023-02-03T10:31:35;102690.63;;;12.23;80.71
62508;BME280;48556;51.972;4.624;2023-02-03T10:34:37;102703.13;;;12.42;79.78
62508;BME280;48556;51.972;4.624;2023-02-03T10:39:59;102697.75;;;12.33;79.42
62508;BME280;48556;51.972;4.624;2023-02-03T10:42:48;102703.94;;;12.37;79.82
62508;BME280;48556;51.972;4.624;2023-02-03T10:45:56;102689.00;;;12.37;79.91
62508;BME280;48556;51.972;4.624;2023-02-03T10:48:53;102709.41;;;12.55;78.91
62508;BME280;48556;51.972;4.624;2023-02-03T10:51:27;102709.53;;;12.69;78.26
62508;BME280;48556;51.972;4.624;2023-02-03T10:53:57;102712.31;;;12.85;76.96
62508;BME280;48556;51.972;4.624;2023-02-03T10:56:30;102709.69;;;12.88;77.69
62508;BME280;48556;51.972;4.624;2023-02-03T10:58:59;102721.03;;;12.77;76.89
62508;BME280;48556;51.972;4.624;2023-02-03T11:01:44;102714.69;;;12.58;78.27
62508;BME280;48556;51.972;4.624;2023-02-03T11:04:25;102737.56;;;12.58;78.74
62508;BME280;48556;51.972;4.624;2023-02-03T11:07:25;102718.38;;;12.73;78.55
62508;BME280;48556;51.972;4.624;2023-02-03T11:10:45;102733.47;;;12.89;77.43
62508;BME280;48556;51.972;4.624;2023-02-03T11:13:24;102733.56;;;13.00;77.20
62508;BME280;48556;51.972;4.624;2023-02-03T11:18:38;102720.06;;;12.64;78.11
62508;BME280;48556;51.972;4.624;2023-02-03T11:24:05;102727.19;;;12.78;77.63
62508;BME280;48556;51.972;4.624;2023-02-03T11:26:44;102722.84;;;12.81;77.65
62508;BME280;48556;51.972;4.624;2023-02-03T11:29:25;102718.44;;;12.80;77.88
62508;BME280;48556;51.972;4.624;2023-02-03T11:32:16;102735.25;;;12.92;77.45
62508;BME280;48556;51.972;4.624;2023-02-03T11:35:12;102741.25;;;12.74;77.96
62508;BME280;48556;51.972;4.624;2023-02-03T11:38:04;102741.97;;;12.57;78.99
62508;BME280;48556;51.972;4.624;2023-02-03T11:40:32;102735.78;;;12.54;79.33
62508;BME280;48556;51.972;4.624;2023-02-03T11:43:15;102731.75;;;12.97;77.64
62508;BME280;48556;51.972;4.624;2023-02-03T11:46:08;102735.91;;;12.68;78.05
62508;BME280;48556;51.972;4.624;2023-02-03T11:48:37;102730.63;;;12.66;78.77
62508;BME280;48556;51.972;4.624;2023-02-03T12:06:32;102732.34;;;12.64;79.20
62508;BME280;48556;51.972;4.624;2023-02-03T12:09:27;102720.94;;;12.68;78.63
62508;BME280;48556;51.972;4.624;2023-02-03T12:12:25;102727.50;;;13.15;77.22
62508;BME280;48556;51.972;4.624;2023-02-03T12:15:13;102727.97;;;12.66;78.80
62508;BME280;48556;51.972;4.624;2023-02-03T12:25:51;102733.63;;;13.08;77.72
62508;BME280;48556;51.972;4.624;2023-02-03T12:31:45;102733.75;;;13.22;76.73
62508;BME280;48556;51.972;4.624;2023-02-03T12:40:16;102730.19;;;13.20;76.49
62508;BME280;48556;51.972;4.624;2023-02-03T12:46:31;102729.06;;;12.85;78.06
62508;BME280;48556;51.972;4.624;2023-02-03T12:54:29;102728.25;;;12.97;77.69
62508;BME280;48556;51.972;4.624;2023-02-03T13:00:39;102734.38;;;12.91;77.90
62508;BME280;48556;51.972;4.624;2023-02-03T13:10:00;102735.88;;;12.64;79.77
62508;BME280;48556;51.972;4.624;2023-02-03T13:12:52;102739.91;;;12.30;80.77
62508;BME280;48556;51.972;4.624;2023-02-03T13:15:41;102742.75;;;12.48;80.70
62508;BME280;48556;51.972;4.624;2023-02-03T13:18:32;102757.91;;;12.68;79.56
62508;BME280;48556;51.972;4.624;2023-02-03T13:20:58;102755.25;;;12.65;79.36
62508;BME280;48556;51.972;4.624;2023-02-03T13:23:26;102754.41;;;12.72;79.63
62508;BME280;48556;51.972;4.624;2023-02-03T13:31:42;102779.41;;;13.08;78.42
62508;BME280;48556;51.972;4.624;2023-02-03T13:40:27;102778.97;;;12.62;79.90
62508;BME280;48556;51.972;4.624;2023-02-03T13:43:03;102777.19;;;12.62;81.35
62508;BME280;48556;51.972;4.624;2023-02-03T13:45:40;102777.81;;;12.37;82.92
62508;BME280;48556;51.972;4.624;2023-02-03T13:48:29;102784.16;;;12.56;82.48
62508;BME280;48556;51.972;4.624;2023-02-03T13:51:30;102775.25;;;12.44;82.92
62508;BME280;48556;51.972;4.624;2023-02-03T13:54:34;102784.00;;;12.42;83.04
62508;BME280;48556;51.972;4.624;2023-02-03T13:57:05;102776.91;;;12.36;83.30
62508;BME280;48556;51.972;4.624;2023-02-03T13:59:44;102789.41;;;12.53;82.12
62508;BME280;48556;51.972;4.624;2023-02-03T14:04:57;102791.88;;;12.37;84.75
62508;BME280;48556;51.972;4.624;2023-02-03T14:12:54;102803.66;;;12.67;83.70
62508;BME280;48556;51.972;4.624;2023-02-03T14:25:24;102817.56;;;12.54;85.81
62508;BME280;48556;51.972;4.624;2023-02-03T14:28:07;102812.50;;;12.75;85.38
62508;BME280;48556;51.972;4.624;2023-02-03T14:33:52;102811.97;;;12.26;86.36
62508;BME280;48556;51.972;4.624;2023-02-03T14:36:39;102825.94;;;12.17;86.79
62508;BME280;48556;51.972;4.624;2023-02-03T14:48:47;102841.56;;;12.03;87.94
62508;BME280;48556;51.972;4.624;2023-02-03T14:54:13;102835.53;;;12.13;87.76
62508;BME280;48556;51.972;4.624;2023-02-03T14:59:48;102847.94;;;12.21;87.36
62508;BME280;48556;51.972;4.624;2023-02-03T15:06:35;102836.00;;;12.49;85.88
62508;BME280;48556;51.972;4.624;2023-02-03T15:09:24;102843.09;;;12.53;85.44
62508;BME280;48556;51.972;4.624;2023-02-03T15:12:22;102842.84;;;12.36;86.23
62508;BME280;48556;51.972;4.624;2023-02-03T15:15:22;102853.88;;;12.75;84.99
62508;BME280;48556;51.972;4.624;2023-02-03T15:17:53;102847.41;;;12.46;84.94
62508;BME280;48556;51.972;4.624;2023-02-03T15:20:23;102854.09;;;12.20;85.47
62508;BME280;48556;51.972;4.624;2023-02-03T15:22:50;102844.94;;;12.60;84.43
62508;BME280;48556;51.972;4.624;2023-02-03T15:25:21;102843.94;;;12.51;85.04
62508;BME280;48556;51.972;4.624;2023-02-03T15:27:49;102840.34;;;12.45;84.84
62508;BME280;48556;51.972;4.624;2023-02-03T15:30:24;102858.34;;;12.80;83.42
62508;BME280;48556;51.972;4.624;2023-02-03T15:33:17;102862.25;;;13.21;80.96
62508;BME280;48556;51.972;4.624;2023-02-03T15:35:51;102871.81;;;13.05;81.35
62508;BME280;48556;51.972;4.624;2023-02-03T15:38:26;102870.00;;;13.03;81.16
62508;BME280;48556;51.972;4.624;2023-02-03T15:40:55;102876.06;;;12.91;81.73
62508;BME280;48556;51.972;4.624;2023-02-03T15:43:40;102873.50;;;13.02;81.29
62508;BME280;48556;51.972;4.624;2023-02-03T15:47:01;102867.13;;;12.79;81.87